Time;durP1;ratioP1;P1;durP2;ratioP2;P2;SDS_P1;SDS_P2;PMS_P1;PMS_P2;Temp;Humidity;BMP_temperature;BMP_pressure;BME280_temperature;BME280_humidity;BME280_pressure;Samples;Min_cycle;Max_cycle;Signal;HPM_P1;HPM_P2
2022/08/29 00:01:25;;;;;;;6.30;2.90;;;15.70;65.50;;;;;;4928417;29;20327;-69
2022/08/29 00:03:54;;;;;;;8.53;3.40;;;15.70;66.00;;;;;;4917500;29;20040;-69
2022/08/29 00:06:20;;;;;;;7.07;3.30;;;15.70;65.80;;;;;;4934402;29;20287;-69
2022/08/29 00:08:46;;;;;;;6.00;2.47;;;15.70;65.80;;;;;;4940525;29;20755;-69
2022/08/29 00:11:12;;;;;;;6.33;2.33;;;15.70;66.30;;;;;;4919369;29;20299;-69
2022/08/29 00:13:38;;;;;;;7.43;1.97;;;15.70;66.40;;;;;;4935380;29;20228;-69
2022/08/29 00:16:05;;;;;;;7.60;2.50;;;15.70;66.50;;;;;;4933192;29;20347;-69
2022/08/29 00:18:31;;;;;;;5.63;2.10;;;15.70;66.70;;;;;;4905788;29;20367;-69
2022/08/29 00:20:57;;;;;;;5.83;2.47;;;15.70;66.50;;;;;;4893632;29;20851;-69
2022/08/29 00:23:23;;;;;;;5.60;2.57;;;15.70;66.80;;;;;;4894920;29;20364;-69
2022/08/29 00:25:49;;;;;;;5.27;2.30;;;15.70;66.70;;;;;;4911558;29;20047;-69
2022/08/29 00:28:15;;;;;;;5.17;2.67;;;15.70;67.20;;;;;;4923077;29;20042;-69
2022/08/29 00:30:41;;;;;;;8.23;2.93;;;15.70;67.00;;;;;;4912110;29;20048;-69
2022/08/29 00:33:07;;;;;;;6.87;2.43;;;15.70;67.10;;;;;;4905636;29;22145;-69
2022/08/29 00:35:36;;;;;;;5.80;2.23;;;15.70;67.50;;;;;;4932366;29;20370;-69
2022/08/29 00:38:04;;;;;;;5.67;1.90;;;15.70;67.30;;;;;;4929241;29;20347;-69
2022/08/29 00:40:33;;;;;;;7.03;2.57;;;15.60;67.30;;;;;;4916647;29;20282;-69
2022/08/29 00:43:00;;;;;;;4.87;2.20;;;15.70;67.40;;;;;;4926176;29;20343;-69
2022/08/29 00:45:26;;;;;;;4.57;2.00;;;15.70;67.40;;;;;;4930458;29;20323;-69
2022/08/29 00:48:10;;;;;;;6.13;2.30;;;15.70;67.50;;;;;;4918612;29;20283;-69
2022/08/29 00:51:01;;;;;;;4.70;2.20;;;15.70;67.70;;;;;;4930709;29;20346;-69
2022/08/29 00:53:36;;;;;;;6.57;2.10;;;15.70;67.60;;;;;;4907783;29;20310;-69
2022/08/29 00:56:02;;;;;;;5.75;3.33;;;15.70;67.60;;;;;;4933980;29;20386;-69
2022/08/29 00:58:39;;;;;;;9.63;2.93;;;15.70;67.70;;;;;;4930510;29;20063;-69
2022/08/29 01:01:05;;;;;;;4.47;2.30;;;15.70;67.80;;;;;;4932570;29;20776;-69
2022/08/29 01:03:33;;;;;;;4.50;2.30;;;15.70;67.80;;;;;;4917231;29;20323;-69
2022/08/29 01:05:59;;;;;;;5.37;2.00;;;15.70;67.50;;;;;;4907059;29;20296;-69
2022/08/29 01:08:26;;;;;;;6.60;2.60;;;15.70;67.80;;;;;;4931816;29;20669;-69
2022/08/29 01:13:39;;;;;;;4.63;2.10;;;15.70;67.90;;;;;;4930635;29;20306;-69
2022/08/29 01:16:07;;;;;;;8.77;3.07;;;15.70;67.70;;;;;;4908168;29;20309;-69
2022/08/29 01:18:35;;;;;;;8.20;2.10;;;15.70;67.90;;;;;;4916581;29;20386;-69
2022/08/29 01:21:13;;;;;;;5.90;2.33;;;15.70;68.00;;;;;;4933071;29;20808;-69
2022/08/29 01:23:48;;;;;;;4.83;1.97;;;15.70;67.90;;;;;;4939773;29;20294;-69
2022/08/29 01:26:14;;;;;;;3.72;1.92;;;15.70;68.20;;;;;;4919349;29;20295;-69
2022/08/29 01:28:47;;;;;;;4.70;1.97;;;15.70;67.90;;;;;;4896139;29;20142;-69
2022/08/29 01:31:19;;;;;;;5.73;1.83;;;15.60;68.40;;;;;;4931188;29;20082;-69
2022/08/29 01:33:48;;;;;;;6.03;1.57;;;15.60;68.00;;;;;;4915671;29;20366;-69
2022/08/29 01:36:22;;;;;;;5.53;2.00;;;15.60;67.70;;;;;;4931972;29;20308;-69
2022/08/29 01:38:48;;;;;;;6.47;1.73;;;15.60;67.80;;;;;;4914936;29;20295;-69
2022/08/29 01:41:15;;;;;;;4.33;2.20;;;15.60;67.70;;;;;;4913572;29;20323;-70
2022/08/29 01:43:47;;;;;;;5.80;2.07;;;15.60;67.90;;;;;;4915045;29;20283;-69
2022/08/29 01:46:18;;;;;;;5.80;1.80;;;15.60;68.20;;;;;;4911293;29;20712;-69
2022/08/29 01:48:45;;;;;;;3.83;1.60;;;15.60;68.10;;;;;;4925054;29;20324;-69
2022/08/29 01:51:12;;;;;;;5.40;1.90;;;15.60;68.20;;;;;;4916827;29;20331;-69
2022/08/29 01:53:38;;;;;;;6.43;2.13;;;15.60;68.30;;;;;;4916235;29;20314;-69
2022/08/29 01:56:18;;;;;;;4.03;2.10;;;15.60;68.20;;;;;;4914636;29;20712;-69
2022/08/29 01:58:47;;;;;;;6.33;2.00;;;15.60;68.40;;;;;;4931370;29;20307;-69
2022/08/29 02:01:17;;;;;;;4.30;1.97;;;15.60;68.30;;;;;;4927273;29;20320;-69
2022/08/29 02:03:44;;;;;;;4.80;2.00;;;15.60;68.40;;;;;;4916775;29;20287;-69
2022/08/29 02:06:10;;;;;;;7.30;2.57;;;15.60;68.30;;;;;;4914949;29;20835;-69
2022/08/29 02:08:37;;;;;;;5.27;2.10;;;15.60;68.70;;;;;;4934725;29;20826;-69
2022/08/29 02:11:08;;;;;;;5.13;1.80;;;15.60;68.80;;;;;;4920604;29;20295;-69
2022/08/29 02:13:44;;;;;;;7.03;2.37;;;15.60;68.90;;;;;;4902606;29;20298;-69
2022/08/29 02:16:10;;;;;;;4.73;1.70;;;15.60;68.90;;;;;;4925093;29;20354;-69
2022/08/29 02:18:36;;;;;;;3.80;1.70;;;15.60;68.90;;;;;;4918280;29;20295;-69
2022/08/29 02:21:02;;;;;;;3.70;1.87;;;15.60;69.10;;;;;;4933575;29;20819;-69
2022/08/29 02:23:29;;;;;;;5.10;1.97;;;15.50;69.30;;;;;;4920669;29;20082;-69
2022/08/29 02:25:55;;;;;;;4.53;1.97;;;15.50;69.10;;;;;;4933481;29;20443;-69
2022/08/29 02:28:21;;;;;;;7.33;2.13;;;15.50;69.80;;;;;;4904090;29;20299;-69
2022/08/29 02:30:51;;;;;;;4.07;2.13;;;15.50;69.60;;;;;;4929488;29;20300;-69
2022/08/29 02:33:19;;;;;;;6.83;2.20;;;15.50;69.70;;;;;;4927220;29;20295;-69
2022/08/29 02:35:45;;;;;;;8.93;2.20;;;15.50;69.90;;;;;;4915298;29;20308;-69
2022/08/29 02:38:12;;;;;;;4.97;2.03;;;15.50;70.10;;;;;;4933960;29;20910;-69
2022/08/29 02:40:38;;;;;;;7.37;2.50;;;15.50;70.30;;;;;;4939753;29;20289;-69
2022/08/29 02:43:04;;;;;;;6.87;2.33;;;15.50;70.40;;;;;;4927496;29;20284;-69
2022/08/29 02:45:31;;;;;;;6.03;2.07;;;15.50;70.60;;;;;;4906324;29;20287;-69
2022/08/29 02:47:57;;;;;;;9.77;2.53;;;15.40;70.60;;;;;;4913913;29;20291;-69
2022/08/29 02:50:24;;;;;;;6.73;2.50;;;15.40;70.60;;;;;;4916279;29;20773;-69
2022/08/29 02:52:51;;;;;;;4.93;2.17;;;15.50;70.70;;;;;;4921449;29;20296;-69
2022/08/29 02:55:18;;;;;;;5.23;1.70;;;15.50;70.50;;;;;;4903030;29;20341;-69
2022/08/29 02:57:45;;;;;;;6.03;2.00;;;15.50;70.40;;;;;;4947309;28;20360;-69
2022/08/29 03:00:15;;;;;;;5.73;2.17;;;15.50;70.50;;;;;;4912678;29;20415;-69
2022/08/29 03:02:42;;;;;;;6.20;2.13;;;15.50;70.50;;;;;;4918615;29;20296;-69
2022/08/29 03:05:08;;;;;;;6.93;1.83;;;15.50;70.60;;;;;;4912736;29;20805;-69
2022/08/29 03:07:34;;;;;;;5.93;1.90;;;15.50;70.50;;;;;;4931895;29;20288;-69
2022/08/29 03:10:00;;;;;;;5.43;2.20;;;15.50;70.60;;;;;;4896769;29;20823;-69
2022/08/29 03:12:27;;;;;;;5.13;2.57;;;15.50;70.80;;;;;;4909303;29;20486;-69
2022/08/29 03:14:53;;;;;;;4.90;2.20;;;15.50;70.70;;;;;;4869922;29;20280;-69
2022/08/29 03:17:18;;;;;;;4.73;2.00;;;15.50;70.70;;;;;;4890699;29;20293;-69
2022/08/29 03:19:44;;;;;;;5.87;2.10;;;15.50;70.80;;;;;;4903387;29;20519;-69
2022/08/29 03:22:10;;;;;;;4.27;2.17;;;15.50;70.80;;;;;;4882507;29;20049;-69
2022/08/29 03:24:36;;;;;;;6.97;2.97;;;15.50;70.90;;;;;;4915084;29;20040;-69
2022/08/29 03:27:02;;;;;;;6.47;2.30;;;15.50;71.00;;;;;;4895802;29;20108;-69
2022/08/29 03:29:28;;;;;;;5.37;2.57;;;15.50;71.00;;;;;;4915587;29;20281;-69
2022/08/29 03:31:57;;;;;;;6.70;2.00;;;15.50;71.20;;;;;;4902981;29;20307;-69
2022/08/29 03:34:24;;;;;;;6.47;2.33;;;15.50;71.00;;;;;;4893902;29;20050;-69
2022/08/29 03:36:50;;;;;;;6.40;2.20;;;15.50;70.90;;;;;;4916116;29;20316;-69
2022/08/29 03:39:16;;;;;;;7.07;2.20;;;15.50;70.90;;;;;;4916683;29;20292;-69
2022/08/29 03:41:42;;;;;;;4.47;1.90;;;15.50;70.90;;;;;;4893583;29;20384;-69
2022/08/29 03:44:08;;;;;;;5.10;2.30;;;15.50;71.00;;;;;;4896768;29;20098;-69
2022/08/29 03:46:38;;;;;;;5.57;2.87;;;15.50;71.20;;;;;;4899550;29;20644;-69
2022/08/29 03:49:07;;;;;;;5.33;2.60;;;15.50;71.30;;;;;;4891861;29;20074;-69
2022/08/29 03:51:35;;;;;;;6.57;2.30;;;15.50;71.50;;;;;;4904779;29;20299;-69
2022/08/29 03:54:01;;;;;;;4.37;1.83;;;15.50;71.50;;;;;;4891712;29;20809;-69
2022/08/29 03:56:27;;;;;;;5.23;2.20;;;15.50;71.60;;;;;;4895210;29;20556;-69
2022/08/29 03:58:54;;;;;;;5.23;2.27;;;15.60;71.70;;;;;;4908651;29;20051;-69
2022/08/29 04:01:24;;;;;;;4.23;2.20;;;15.60;71.60;;;;;;4916659;29;20355;-69
2022/08/29 04:03:50;;;;;;;4.90;2.37;;;15.60;71.70;;;;;;4923729;29;20287;-69
2022/08/29 04:06:16;;;;;;;6.07;2.23;;;15.50;72.00;;;;;;4931591;29;20299;-69
2022/08/29 04:08:42;;;;;;;7.33;2.73;;;15.50;72.10;;;;;;4921135;29;20047;-69
2022/08/29 04:11:09;;;;;;;5.83;2.50;;;15.50;72.20;;;;;;4899027;29;20057;-69
2022/08/29 04:13:35;;;;;;;7.87;2.90;;;15.50;72.20;;;;;;4928431;29;20307;-69
2022/08/29 04:16:07;;;;;;;5.73;2.47;;;15.50;72.20;;;;;;4924728;29;20307;-69
2022/08/29 04:18:33;;;;;;;6.23;2.73;;;15.50;72.00;;;;;;4911769;29;20677;-69
2022/08/29 04:21:01;;;;;;;5.97;2.57;;;15.50;72.20;;;;;;4927245;29;20777;-69
2022/08/29 04:23:27;;;;;;;10.50;3.07;;;15.50;72.40;;;;;;4931101;29;20291;-69
2022/08/29 04:25:52;;;;;;;7.23;3.00;;;15.50;72.50;;;;;;4933414;29;20291;-69
2022/08/29 04:28:19;;;;;;;6.97;2.70;;;15.50;72.40;;;;;;4926481;29;20432;-69
2022/08/29 04:30:50;;;;;;;6.57;2.67;;;15.50;72.50;;;;;;4913075;29;20130;-69
2022/08/29 04:33:16;;;;;;;7.77;2.40;;;15.50;72.30;;;;;;4932991;29;20839;-69
2022/08/29 04:35:42;;;;;;;6.27;2.73;;;15.50;72.40;;;;;;4909068;29;20311;-69
2022/08/29 04:38:08;;;;;;;6.27;2.50;;;15.60;72.80;;;;;;4915904;29;20622;-69
2022/08/29 04:40:37;;;;;;;7.13;2.57;;;15.60;72.80;;;;;;4907658;29;20036;-69
2022/08/29 04:43:03;;;;;;;5.57;2.53;;;15.60;72.60;;;;;;4894625;29;20311;-69
2022/08/29 04:45:29;;;;;;;8.23;2.47;;;15.60;73.00;;;;;;4928656;29;20919;-69
2022/08/29 04:47:54;;;;;;;8.83;3.63;;;15.60;73.40;;;;;;4906127;29;20302;-69
2022/08/29 04:50:22;;;;;;;4.33;2.33;;;15.60;73.40;;;;;;4914532;29;20058;-69
2022/08/29 04:52:51;;;;;;;5.43;2.43;;;15.60;73.20;;;;;;4929918;29;20046;-69
2022/08/29 04:55:18;;;;;;;5.80;2.30;;;15.60;73.50;;;;;;4927763;29;20323;-69
2022/08/29 04:57:44;;;;;;;8.23;2.50;;;15.60;73.30;;;;;;4916283;29;20292;-69
2022/08/29 05:00:13;;;;;;;7.87;2.20;;;15.70;73.40;;;;;;4917516;29;20297;-69
2022/08/29 05:02:40;;;;;;;6.07;2.43;;;15.70;73.40;;;;;;4937411;29;20412;-69
2022/08/29 05:05:08;;;;;;;7.00;2.30;;;15.80;73.50;;;;;;4936226;29;20283;-69
2022/08/29 05:07:34;;;;;;;5.90;1.80;;;15.80;73.60;;;;;;4918629;29;20290;-73
2022/08/29 05:10:04;;;;;;;3.63;1.63;;;15.80;73.60;;;;;;4916495;29;20287;-69
2022/08/29 05:12:32;;;;;;;6.60;2.60;;;15.90;74.00;;;;;;4909644;29;20370;-69
2022/08/29 05:14:58;;;;;;;7.77;2.10;;;15.90;74.30;;;;;;4931931;29;20306;-69
2022/08/29 05:17:24;;;;;;;6.30;2.30;;;15.90;74.30;;;;;;4910437;29;20781;-69
2022/08/29 05:19:50;;;;;;;10.50;2.20;;;15.90;74.10;;;;;;4926250;29;20302;-69
2022/08/29 05:22:18;;;;;;;7.87;2.47;;;16.00;73.90;;;;;;4899319;29;20366;-69
2022/08/29 05:24:45;;;;;;;5.30;2.30;;;16.00;74.00;;;;;;4934690;29;20771;-69
2022/08/29 05:27:13;;;;;;;7.03;2.50;;;16.10;74.20;;;;;;4912828;29;20332;-69
2022/08/29 05:29:41;;;;;;;7.53;2.97;;;16.10;73.70;;;;;;4913848;29;20299;-69
2022/08/29 05:32:09;;;;;;;9.03;2.37;;;16.20;73.70;;;;;;4939728;28;20346;-69
2022/08/29 05:34:37;;;;;;;5.27;2.33;;;16.20;73.70;;;;;;4933178;29;20322;-69
2022/08/29 05:37:05;;;;;;;5.43;2.47;;;16.30;73.60;;;;;;4935151;29;20299;-69
2022/08/29 05:39:32;;;;;;;6.67;2.00;;;16.40;73.70;;;;;;4903702;29;20284;-69
2022/08/29 05:41:58;;;;;;;3.70;1.43;;;16.40;73.60;;;;;;4915534;29;20288;-69
2022/08/29 05:44:25;;;;;;;3.97;1.17;;;16.50;73.60;;;;;;4939942;29;20327;-69
2022/08/29 05:46:50;;;;;;;4.60;1.30;;;16.50;73.70;;;;;;4909616;29;20280;-69
2022/08/29 05:49:16;;;;;;;6.53;1.50;;;16.60;73.70;;;;;;4912936;29;20283;-69
2022/08/29 05:51:42;;;;;;;3.93;1.40;;;16.60;73.70;;;;;;4916454;29;20047;-69
2022/08/29 05:54:08;;;;;;;8.33;1.97;;;16.60;73.50;;;;;;4931930;29;20039;-69
2022/08/29 05:56:33;;;;;;;3.37;1.27;;;16.70;73.90;;;;;;4914809;29;20086;-69
2022/08/29 05:59:00;;;;;;;6.53;1.83;;;16.70;74.00;;;;;;4915890;29;21313;-69
2022/08/29 06:01:30;;;;;;;4.93;1.60;;;16.70;74.10;;;;;;4934392;29;20047;-69
2022/08/29 06:03:56;;;;;;;4.00;1.37;;;16.70;74.20;;;;;;4934527;29;20283;-69
2022/08/29 06:06:24;;;;;;;3.27;1.23;;;16.70;74.30;;;;;;4910972;29;20825;-69
2022/08/29 06:08:51;;;;;;;5.63;1.73;;;16.80;74.40;;;;;;4936470;29;20040;-69
2022/08/29 06:11:20;;;;;;;6.13;1.60;;;16.80;74.50;;;;;;4932990;29;20572;-69
2022/08/29 06:13:46;;;;;;;3.63;1.17;;;16.80;74.90;;;;;;4910039;29;20641;-69
2022/08/29 06:16:18;;;;;;;5.20;1.30;;;16.80;74.60;;;;;;4918582;29;20862;-69
2022/08/29 06:18:45;;;;;;;4.80;1.00;;;16.80;74.50;;;;;;4933252;29;20091;-69
2022/08/29 06:21:11;;;;;;;4.67;1.20;;;16.90;74.50;;;;;;4936262;29;20377;-69
2022/08/29 06:23:39;;;;;;;6.27;1.83;;;17.00;74.50;;;;;;4916302;29;20723;-69
2022/08/29 06:26:05;;;;;;;7.07;1.67;;;17.10;74.80;;;;;;4902492;29;20284;-69
2022/08/29 06:28:33;;;;;;;5.03;1.30;;;17.10;75.00;;;;;;4933750;29;20287;-69
2022/08/29 06:31:07;;;;;;;4.40;1.40;;;17.20;75.00;;;;;;4897447;29;20422;-69
2022/08/29 06:33:33;;;;;;;7.40;1.60;;;17.30;74.90;;;;;;4924685;29;20322;-69
2022/08/29 06:35:59;;;;;;;6.07;1.50;;;17.30;75.00;;;;;;4918798;29;20304;-69
2022/08/29 06:38:25;;;;;;;6.50;1.40;;;17.40;74.70;;;;;;4898836;29;20311;-69
2022/08/29 06:40:50;;;;;;;4.63;1.57;;;17.50;74.60;;;;;;4918635;29;20047;-69
2022/08/29 06:43:16;;;;;;;6.73;1.27;;;17.70;74.20;;;;;;4916364;29;20368;-69
2022/08/29 06:45:42;;;;;;;5.10;1.37;;;17.80;73.80;;;;;;4900561;29;20107;-69
2022/08/29 06:48:09;;;;;;;7.10;1.93;;;17.90;73.60;;;;;;4921435;29;20040;-69
2022/08/29 06:50:39;;;;;;;4.63;1.13;;;18.00;73.30;;;;;;4922230;29;20312;-69
2022/08/29 06:53:06;;;;;;;4.43;1.20;;;18.10;73.10;;;;;;4935772;29;20366;-69
2022/08/29 06:55:36;;;;;;;6.47;1.17;;;18.20;72.80;;;;;;4931356;29;20298;-69
2022/08/29 06:58:03;;;;;;;8.13;1.30;;;18.30;72.80;;;;;;4913534;29;20307;-69
2022/08/29 07:00:29;;;;;;;6.10;1.57;;;18.40;72.60;;;;;;4930719;29;20314;-69
2022/08/29 07:02:55;;;;;;;4.67;1.40;;;18.40;72.60;;;;;;4902813;29;20272;-69
2022/08/29 07:05:22;;;;;;;4.13;1.33;;;18.50;72.60;;;;;;4918362;29;20059;-69
2022/08/29 07:07:49;;;;;;;5.03;1.10;;;18.70;72.10;;;;;;4918120;29;20051;-69
2022/08/29 07:10:14;;;;;;;6.47;1.50;;;18.80;71.50;;;;;;4928931;29;20296;-70
2022/08/29 07:12:40;;;;;;;4.37;1.03;;;19.00;71.00;;;;;;4899500;29;20880;-69
2022/08/29 07:15:07;;;;;;;5.40;1.40;;;19.00;70.90;;;;;;4916234;29;20111;-69
2022/08/29 07:17:33;;;;;;;4.53;1.10;;;19.10;70.20;;;;;;4903048;29;20043;-69
2022/08/29 07:19:58;;;;;;;5.77;1.60;;;19.20;69.80;;;;;;4922463;29;20272;-69
2022/08/29 07:22:25;;;;;;;5.37;1.27;;;19.20;69.50;;;;;;4901812;29;20298;-69
2022/08/29 07:24:51;;;;;;;5.47;1.20;;;19.20;69.70;;;;;;4936274;29;20039;-69
2022/08/29 07:27:17;;;;;;;2.23;0.77;;;19.20;69.60;;;;;;4919251;29;20424;-69
2022/08/29 07:29:42;;;;;;;3.60;1.13;;;19.20;69.50;;;;;;4936212;29;20280;-69
2022/08/29 07:32:08;;;;;;;4.93;1.30;;;19.30;69.20;;;;;;4917082;29;20039;-69
2022/08/29 07:34:35;;;;;;;5.40;1.30;;;19.30;69.50;;;;;;4919508;29;20035;-69
2022/08/29 07:37:03;;;;;;;2.23;0.90;;;19.50;69.40;;;;;;4934616;29;20052;-69
2022/08/29 07:39:30;;;;;;;6.43;1.20;;;19.60;68.70;;;;;;4918651;29;20279;-68
2022/08/29 07:41:57;;;;;;;3.83;1.20;;;19.70;68.50;;;;;;4913953;29;20279;-68
2022/08/29 07:44:24;;;;;;;4.30;0.93;;;19.80;68.40;;;;;;4933550;29;20295;-69
2022/08/29 07:46:54;;;;;;;5.87;1.00;;;19.90;68.00;;;;;;4924776;29;20280;-69
2022/08/29 07:49:20;;;;;;;3.17;0.73;;;20.00;67.40;;;;;;4911080;29;20280;-69
2022/08/29 07:51:46;;;;;;;3.20;1.10;;;20.10;67.10;;;;;;4911902;29;20284;-69
2022/08/29 07:54:15;;;;;;;2.40;0.93;;;20.20;66.70;;;;;;4902968;29;20051;-69
2022/08/29 07:56:41;;;;;;;5.43;1.00;;;20.20;65.90;;;;;;4916560;29;20303;-69
2022/08/29 07:59:08;;;;;;;4.27;1.20;;;20.20;65.60;;;;;;4912556;29;20304;-68
2022/08/29 08:01:34;;;;;;;5.97;1.47;;;20.30;65.80;;;;;;4898579;29;20333;-68
2022/08/29 08:04:00;;;;;;;3.63;0.97;;;20.30;65.40;;;;;;4912019;29;20040;-69
2022/08/29 08:06:26;;;;;;;4.30;1.50;;;20.30;65.20;;;;;;4911808;29;20040;-69
2022/08/29 08:08:52;;;;;;;3.47;1.40;;;20.40;65.30;;;;;;4938388;29;20074;-69
2022/08/29 08:11:20;;;;;;;4.00;1.00;;;20.50;65.40;;;;;;4926043;29;20075;-69
2022/08/29 08:13:46;;;;;;;4.53;1.20;;;20.60;65.00;;;;;;4946572;28;20048;-69
2022/08/29 08:16:15;;;;;;;4.57;1.20;;;20.70;64.60;;;;;;4916336;29;20413;-69
2022/08/29 08:18:42;;;;;;;6.20;1.20;;;20.70;64.50;;;;;;4926326;29;20463;-68
2022/08/29 08:21:09;;;;;;;5.53;1.20;;;20.70;64.20;;;;;;4912848;29;20032;-68
2022/08/29 08:23:35;;;;;;;4.30;0.93;;;20.80;64.40;;;;;;4933174;29;20393;-68
2022/08/29 08:26:01;;;;;;;5.50;1.20;;;20.80;64.10;;;;;;4910656;29;20036;-68
2022/08/29 08:28:29;;;;;;;7.83;1.50;;;20.80;63.70;;;;;;4912046;29;20047;-68
2022/08/29 08:30:56;;;;;;;4.37;1.10;;;20.80;63.50;;;;;;4922516;29;20044;-68
2022/08/29 08:33:22;;;;;;;2.60;0.90;;;20.90;63.50;;;;;;4918569;29;20043;-68
2022/08/29 08:35:47;;;;;;;2.57;0.90;;;21.00;63.20;;;;;;4930412;29;20043;-68
2022/08/29 08:38:15;;;;;;;5.70;1.00;;;21.00;63.10;;;;;;4911965;29;20039;-68
2022/08/29 08:40:49;;;;;;;8.40;1.20;;;21.00;62.60;;;;;;4911908;29;20047;-69
2022/08/29 08:43:22;;;;;;;5.63;1.07;;;21.00;63.00;;;;;;4921281;29;20050;-69
2022/08/29 08:45:48;;;;;;;6.30;1.20;;;21.10;63.40;;;;;;4925086;29;20051;-68
2022/08/29 08:48:24;;;;;;;4.60;1.30;;;21.40;62.60;;;;;;4919967;28;20087;-68
2022/08/29 08:51:04;;;;;;;4.87;1.07;;;21.50;61.90;;;;;;4923730;29;20054;-69
2022/08/29 08:53:47;;;;;;;6.77;1.13;;;21.70;61.30;;;;;;4922388;29;20047;-68
2022/08/29 08:56:12;;;;;;;3.27;1.00;;;21.80;60.90;;;;;;4926361;29;20046;-68
2022/08/29 08:58:38;;;;;;;3.17;0.77;;;21.80;60.70;;;;;;4927074;29;20374;-68
2022/08/29 09:01:31;;;;;;;4.00;1.00;;;21.70;60.60;;;;;;4910062;29;20121;-68
2022/08/29 09:04:24;;;;;;;4.20;1.13;;;21.60;60.80;;;;;;4921890;29;20458;-68
2022/08/29 09:07:22;;;;;;;6.10;0.77;;;21.50;60.70;;;;;;4906489;29;20043;-68
2022/08/29 09:10:10;;;;;;;4.77;1.00;;;21.60;61.00;;;;;;4910906;28;20135;-68
2022/08/29 09:13:04;;;;;;;1.73;0.67;;;21.70;61.00;;;;;;4919917;29;20499;-68
2022/08/29 09:15:37;;;;;;;7.47;1.20;;;22.00;60.50;;;;;;4924488;29;20130;-68
2022/08/29 09:18:10;;;;;;;5.27;0.90;;;22.40;59.50;;;;;;4908921;29;20051;-69
2022/08/29 09:20:38;;;;;;;4.80;0.97;;;22.70;57.70;;;;;;4903849;29;20509;-68
2022/08/29 09:23:17;;;;;;;3.20;0.77;;;22.80;58.50;;;;;;4923783;29;20044;-68
2022/08/29 09:25:43;;;;;;;4.77;1.47;;;23.00;57.60;;;;;;4905434;29;20071;-68
2022/08/29 09:28:09;;;;;;;6.20;1.13;;;23.00;56.90;;;;;;4914395;29;20066;-68
2022/08/29 09:30:38;;;;;;;4.53;1.30;;;22.80;57.40;;;;;;4887946;29;20404;-68
2022/08/29 09:33:07;;;;;;;6.37;1.23;;;22.60;58.00;;;;;;4910251;29;20060;-68
2022/08/29 09:35:39;;;;;;;4.17;0.93;;;22.80;58.10;;;;;;4930598;29;20043;-68
2022/08/29 09:38:16;;;;;;;3.43;0.77;;;22.90;58.00;;;;;;4921403;29;20039;-68
2022/08/29 09:41:00;;;;;;;3.57;0.90;;;23.00;57.50;;;;;;4918303;29;20415;-68
2022/08/29 09:43:43;;;;;;;5.23;1.10;;;23.10;56.80;;;;;;4917925;29;20039;-69
2022/08/29 09:46:24;;;;;;;4.43;1.50;;;23.30;56.70;;;;;;4928512;29;20768;-68
2022/08/29 09:49:12;;;;;;;4.57;1.20;;;23.50;55.90;;;;;;4933940;29;21549;-69
2022/08/29 09:51:44;;;;;;;4.67;1.20;;;23.70;55.90;;;;;;4914694;29;20128;-69
2022/08/29 09:54:26;;;;;;;6.07;1.40;;;23.80;56.50;;;;;;4934463;29;20413;-69
2022/08/29 09:57:09;;;;;;;3.53;1.20;;;24.10;55.90;;;;;;4928606;29;20214;-68
2022/08/29 09:59:43;;;;;;;6.27;1.10;;;24.30;55.70;;;;;;4930753;29;20335;-68
2022/08/29 10:02:51;;;;;;;9.43;2.00;;;24.20;55.30;;;;;;4911171;29;20279;-70
2022/08/29 10:05:40;;;;;;;5.47;1.40;;;24.10;55.90;;;;;;4923463;29;20047;-68
2022/08/29 10:08:48;;;;;;;5.37;1.40;;;23.80;56.70;;;;;;4913509;29;20475;-68
2022/08/29 10:11:20;;;;;;;4.17;1.40;;;23.50;57.80;;;;;;4928552;29;20051;-68
2022/08/29 10:13:52;;;;;;;5.57;1.30;;;23.50;58.20;;;;;;4932339;29;20043;-69
2022/08/29 10:16:27;;;;;;;7.23;1.57;;;23.40;58.40;;;;;;4915475;29;20071;-68
2022/08/29 10:18:58;;;;;;;;;;;23.50;58.20;;;;;;4914464;29;20039;-70
2022/08/29 10:21:50;;;;;;;5.27;1.40;;;23.50;58.90;;;;;;4932281;29;19965;-69
2022/08/29 10:24:53;;;;;;;4.83;1.20;;;23.50;58.10;;;;;;4928506;29;20421;-69
2022/08/29 10:27:52;;;;;;;3.63;1.53;;;23.60;58.40;;;;;;4914065;29;20092;-69
2022/08/29 10:30:44;;;;;;;5.20;1.47;;;23.70;57.90;;;;;;4944398;28;20074;-68
2022/08/29 10:33:43;;;;;;;4.60;1.20;;;23.60;56.80;;;;;;4917797;29;20051;-68
2022/08/29 10:36:24;;;;;;;3.43;0.90;;;23.40;56.70;;;;;;4936033;29;20035;-69
2022/08/29 10:39:20;;;;;;;5.67;1.67;;;23.30;56.90;;;;;;4932680;29;20048;-69
2022/08/29 10:41:48;;;;;;;5.40;1.10;;;23.30;57.60;;;;;;4927445;29;20047;-69
2022/08/29 10:44:56;;;;;;;5.60;1.83;;;23.40;58.20;;;;;;4928897;29;20035;-68
2022/08/29 10:47:34;;;;;;;6.40;1.67;;;23.60;58.10;;;;;;4928613;29;20123;-68
2022/08/29 10:50:16;;;;;;;6.53;1.70;;;23.80;57.60;;;;;;4907654;29;20047;-69
2022/08/29 10:53:09;;;;;;;6.27;1.57;;;24.00;57.60;;;;;;4900133;29;20127;-68
2022/08/29 10:56:03;;;;;;;7.40;1.87;;;24.20;57.10;;;;;;4924900;29;20445;-68
2022/08/29 10:58:41;;;;;;;5.73;1.67;;;24.30;57.00;;;;;;4925845;29;20083;-68
2022/08/29 11:01:21;;;;;;;7.07;1.77;;;24.40;56.50;;;;;;4929863;29;20036;-68
2022/08/29 11:03:51;;;;;;;5.87;1.53;;;24.50;56.30;;;;;;4914383;29;20075;-70
2022/08/29 11:06:26;;;;;;;7.17;1.50;;;24.70;55.80;;;;;;4919026;29;20055;-68
2022/08/29 11:09:05;;;;;;;9.63;1.80;;;24.80;55.50;;;;;;4931105;29;20059;-68
2022/08/29 11:11:35;;;;;;;5.13;1.63;;;24.90;54.70;;;;;;4926266;29;20160;-68
2022/08/29 11:14:23;;;;;;;6.13;2.30;;;24.90;54.60;;;;;;4944989;28;20040;-68
2022/08/29 11:16:50;;;;;;;4.90;1.40;;;24.90;54.80;;;;;;4944419;28;20187;-68
2022/08/29 11:19:59;;;;;;;7.70;2.13;;;24.90;54.50;;;;;;4914200;29;20040;-70
2022/08/29 11:22:32;;;;;;;7.67;2.30;;;24.80;55.70;;;;;;4915485;29;20078;-69
2022/08/29 11:24:57;;;;;;;6.17;1.57;;;24.60;55.10;;;;;;4914879;29;20052;-69
2022/08/29 11:27:33;;;;;;;6.87;1.80;;;24.40;55.30;;;;;;4927934;29;20047;-68
2022/08/29 11:30:11;;;;;;;6.10;2.00;;;24.30;55.80;;;;;;4911394;29;20047;-69
2022/08/29 11:33:04;;;;;;;6.17;1.60;;;24.20;56.50;;;;;;4932674;29;20130;-70
2022/08/29 11:36:01;;;;;;;6.13;1.70;;;24.10;56.50;;;;;;4930307;29;20304;-69
2022/08/29 11:38:45;;;;;;;5.63;1.73;;;23.90;56.90;;;;;;4914961;29;20047;-69
2022/08/29 11:41:27;;;;;;;5.55;1.90;;;23.70;57.50;;;;;;4913760;29;20075;-68
2022/08/29 11:44:02;;;;;;;10.87;2.40;;;23.50;58.50;;;;;;4929024;29;20572;-68
2022/08/29 11:46:37;;;;;;;7.57;2.00;;;23.30;59.10;;;;;;4945262;28;20051;-68
2022/08/29 11:49:24;;;;;;;7.53;2.03;;;23.30;59.70;;;;;;4914937;29;20046;-68
2022/08/29 11:51:59;;;;;;;9.97;2.10;;;23.30;59.50;;;;;;4937843;28;20749;-68
2022/08/29 11:54:27;;;;;;;7.90;2.30;;;23.30;59.00;;;;;;4920179;29;20122;-68
2022/08/29 11:56:58;;;;;;;7.70;2.00;;;23.30;59.40;;;;;;4927206;29;20406;-69
2022/08/29 11:59:47;;;;;;;8.20;2.10;;;23.40;59.30;;;;;;4926904;29;20051;-69
2022/08/29 12:02:30;;;;;;;7.47;1.90;;;23.50;59.10;;;;;;4917695;29;20073;-69
2022/08/29 12:04:57;;;;;;;6.40;1.60;;;23.50;58.10;;;;;;4933353;29;20079;-69
2022/08/29 12:07:39;;;;;;;15.07;3.13;;;23.50;57.70;;;;;;4911907;29;20083;-69
2022/08/29 12:10:29;;;;;;;11.53;1.93;;;23.30;57.80;;;;;;4932026;29;20488;-69
2022/08/29 12:13:04;;;;;;;8.63;1.70;;;23.30;58.60;;;;;;4928578;29;20046;-69
2022/08/29 12:15:30;;;;;;;6.40;1.50;;;23.40;58.70;;;;;;4912842;29;20056;-70
2022/08/29 12:17:59;;;;;;;8.00;2.10;;;23.40;58.60;;;;;;4908180;29;20043;-68
2022/08/29 12:20:51;;;;;;;9.67;2.07;;;23.60;58.60;;;;;;4911554;29;20036;-68
2022/08/29 12:23:22;;;;;;;6.80;1.97;;;23.90;57.80;;;;;;4928457;29;20050;-68
2022/08/29 12:25:50;;;;;;;8.33;2.00;;;24.20;56.80;;;;;;4913187;29;20580;-69
2022/08/29 12:28:52;;;;;;;4.07;1.80;;;24.10;56.90;;;;;;4925476;29;20046;-68
2022/08/29 12:31:22;;;;;;;6.95;2.30;;;24.10;57.00;;;;;;4920860;29;20055;-68
2022/08/29 12:34:00;;;;;;;11.03;2.00;;;23.90;57.00;;;;;;4930402;29;20048;-69
2022/08/29 12:36:35;;;;;;;5.07;1.80;;;23.70;57.30;;;;;;4911155;29;20119;-68
2022/08/29 12:39:19;;;;;;;;;;;23.60;57.80;;;;;;4912704;29;20126;-69
2022/08/29 12:41:47;;;;;;;21.37;3.37;;;23.40;58.20;;;;;;4929070;29;19941;-68
2022/08/29 12:44:15;;;;;;;18.20;2.60;;;23.20;59.30;;;;;;4910476;29;20043;-69
2022/08/29 12:46:45;;;;;;;8.40;1.83;;;23.20;59.00;;;;;;4913856;29;20391;-69
2022/08/29 12:49:28;;;;;;;8.60;2.07;;;23.30;59.20;;;;;;4929365;29;20054;-70
2022/08/29 12:52:04;;;;;;;13.47;2.87;;;23.40;59.40;;;;;;4931640;29;20087;-68
2022/08/29 12:54:33;;;;;;;6.03;2.00;;;23.50;59.20;;;;;;4932639;29;20044;-69
2022/08/29 12:57:00;;;;;;;9.17;2.30;;;23.70;59.10;;;;;;4911862;29;20445;-69
2022/08/29 12:59:26;;;;;;;8.77;2.40;;;23.80;58.70;;;;;;4913784;29;20072;-70
2022/08/29 13:01:54;;;;;;;8.47;2.57;;;24.00;58.20;;;;;;4897270;29;20058;-68
2022/08/29 13:04:23;;;;;;;6.13;2.10;;;24.10;58.00;;;;;;4911762;29;20086;-69
2022/08/29 13:07:00;;;;;;;7.60;1.97;;;24.30;58.00;;;;;;4920469;29;20605;-69
2022/08/29 13:09:42;;;;;;;6.47;2.07;;;24.50;57.80;;;;;;4906313;29;20040;-69
2022/08/29 13:12:28;;;;;;;7.03;2.10;;;24.60;57.50;;;;;;4931190;29;20315;-69